Hoopeston, Illinois
Current Conditions -  °F | °C
As of 1:35 PM on Friday 24 Oct 2014 (Local Time) from KDNV Reporting Station
Scattered Clouds Scattered Clouds  
Wind Chill: 65°   Ceiling: Unl
Heat Index: 65°   Visibility: 7mi
Dew Point: 53°   Wind: 8mph
Humidity: 65%   Direction: 230°SW
Pressure: 30.01"   Gusts: NA
Location:  40.47°N, 87.67°W
Report Text: KDNV 241835Z AUTO 23007KT 7SM SCT038 18/12 A3001 RMK AO2 T01840118
Loading
Personal Weather Stations






























Interactive Weather Map
Tropical Storm Tracking
New forecast layout! Learn more

10-Day Weather Forecast

Advertisements
Track Severe Weather on mobile